createdAt,value
2022-08-08T00:02:15.297Z,98458.00
2022-08-08T00:05:03.611Z,98468.00
2022-08-08T00:07:52.342Z,98471.00
2022-08-08T00:10:56.965Z,98477.00
2022-08-08T00:14:17.272Z,98476.00
2022-08-08T00:17:23.248Z,98474.00
2022-08-08T00:20:06.827Z,98474.00
2022-08-08T00:22:51.807Z,98472.00
2022-08-08T00:25:45.108Z,98470.00
2022-08-08T00:28:35.942Z,98467.00
2022-08-08T00:32:20.109Z,98467.00
2022-08-08T00:35:05.573Z,98469.00
2022-08-08T00:38:07.606Z,98465.00
2022-08-08T00:41:44.827Z,98473.00
2022-08-08T00:44:41.979Z,98464.00
2022-08-08T00:48:04.917Z,98474.00
2022-08-08T00:51:15.195Z,98477.00
2022-08-08T00:54:37.049Z,98482.00
2022-08-08T00:58:01.366Z,98477.00
2022-08-08T01:01:12.446Z,98483.00
2022-08-08T01:04:32.857Z,98483.00
2022-08-08T01:07:54.965Z,98478.00
2022-08-08T01:10:57.730Z,98481.00
2022-08-08T01:14:19.297Z,98483.00
2022-08-08T01:17:19.880Z,98488.00
2022-08-08T01:20:17.652Z,98482.00
2022-08-08T01:24:05.678Z,98486.00
2022-08-08T01:26:27.413Z,98482.00
2022-08-08T01:29:28.071Z,98479.00
2022-08-08T01:32:57.352Z,98481.00
2022-08-08T01:36:18.811Z,98487.00
2022-08-08T01:39:42.194Z,98486.00
2022-08-08T01:42:48.937Z,98477.00
2022-08-08T01:45:50.448Z,98486.00
2022-08-08T01:49:01.685Z,98485.00
2022-08-08T01:52:54.686Z,98490.00
2022-08-08T01:56:28.237Z,98489.00
2022-08-08T01:59:16.587Z,98489.00
2022-08-08T02:02:34.809Z,98491.00
2022-08-08T02:05:56.938Z,98482.00
2022-08-08T02:08:49.354Z,98484.00
2022-08-08T02:11:59.140Z,98483.00
2022-08-08T02:14:58.961Z,98478.00
2022-08-08T02:17:50.277Z,98477.00
2022-08-08T02:21:08.588Z,98468.00
2022-08-08T02:24:17.144Z,98467.00
2022-08-08T02:27:23.571Z,98469.00
2022-08-08T02:30:24.920Z,98472.00
2022-08-08T02:34:09.304Z,98476.00
2022-08-08T02:36:54.781Z,98471.00
2022-08-08T02:40:00.084Z,98473.00
2022-08-08T02:44:42.758Z,98467.00
2022-08-08T02:46:34.214Z,98475.00
2022-08-08T02:49:48.153Z,98471.00
2022-08-08T02:52:59.208Z,98472.00
2022-08-08T02:55:57.722Z,98477.00
2022-08-08T02:58:54.089Z,98474.00
2022-08-08T03:01:50.763Z,98479.00
2022-08-08T03:05:11.174Z,98476.00
2022-08-08T03:08:24.484Z,98475.00
2022-08-08T03:12:01.546Z,98481.00
2022-08-08T03:15:56.484Z,98488.00
2022-08-08T03:18:39.108Z,98489.00
2022-08-08T03:21:14.754Z,98501.00
2022-08-08T03:23:59.263Z,98503.00
2022-08-08T03:26:42.011Z,98501.00
2022-08-08T03:29:38.210Z,98501.00
2022-08-08T03:32:33.927Z,98498.00
2022-08-08T03:35:09.449Z,98500.00
2022-08-08T03:38:53.041Z,98500.00
2022-08-08T03:40:32.829Z,98499.00
2022-08-08T03:43:16.711Z,98511.00
2022-08-08T03:46:05.168Z,98505.00
2022-08-08T03:49:55.072Z,98509.00
2022-08-08T03:51:51.436Z,98509.00
2022-08-08T03:54:41.828Z,98518.00
2022-08-08T03:58:31.445Z,98510.00
2022-08-08T04:00:12.809Z,98514.00
2022-08-08T04:03:06.371Z,98530.00
2022-08-08T04:05:49.718Z,98528.00
2022-08-08T04:08:33.743Z,98527.00
2022-08-08T04:11:11.486Z,98523.00
2022-08-08T04:14:03.224Z,98536.00
2022-08-08T04:16:42.631Z,98535.00
2022-08-08T04:19:25.297Z,98531.00
2022-08-08T04:22:01.703Z,98542.00
2022-08-08T04:24:40.165Z,98549.00
2022-08-08T04:27:19.465Z,98546.00
2022-08-08T04:30:18.291Z,98543.00
2022-08-08T04:32:51.871Z,98553.00
2022-08-08T04:35:29.867Z,98548.00
2022-08-08T04:38:04.776Z,98551.00
2022-08-08T04:40:40.447Z,98555.00
2022-08-08T04:43:31.388Z,98551.00
2022-08-08T04:46:19.311Z,98557.00
2022-08-08T04:48:52.750Z,98567.00
2022-08-08T04:51:56.814Z,98566.00
2022-08-08T04:54:39.770Z,98569.00
2022-08-08T04:57:06.130Z,98572.00
2022-08-08T04:59:41.982Z,98569.00
2022-08-08T05:02:15.113Z,98574.00
2022-08-08T05:04:53.794Z,98581.00
2022-08-08T05:07:37.957Z,98587.00
2022-08-08T05:10:14.807Z,98588.00
2022-08-08T05:13:00.201Z,98581.00
2022-08-08T05:16:54.213Z,98592.00
2022-08-08T05:18:26.090Z,98575.00
2022-08-08T05:21:00.268Z,98585.00
2022-08-08T05:23:41.436Z,98585.00
2022-08-08T05:26:19.860Z,98588.00
2022-08-08T05:28:57.228Z,98586.00
2022-08-08T05:32:03.392Z,98583.00
2022-08-08T05:34:49.313Z,98594.00
2022-08-08T05:37:53.303Z,98589.00
2022-08-08T05:40:28.418Z,98590.00
2022-08-08T05:43:17.166Z,98597.00
2022-08-08T05:46:07.996Z,98595.00
2022-08-08T05:48:42.998Z,98600.00
2022-08-08T05:51:17.921Z,98598.00
2022-08-08T05:54:25.574Z,98595.00
2022-08-08T05:56:47.455Z,98605.00
2022-08-08T06:00:00.643Z,98602.00
2022-08-08T06:02:47.943Z,98603.00
2022-08-08T06:05:33.558Z,98604.00
2022-08-08T06:08:28.599Z,98615.00
2022-08-08T06:11:05.727Z,98613.00
2022-08-08T06:13:47.651Z,98604.00
2022-08-08T06:16:27.243Z,98603.00
2022-08-08T06:19:04.014Z,98610.00
2022-08-08T06:21:48.759Z,98613.00
2022-08-08T06:24:30.306Z,98614.00
2022-08-08T06:27:09.983Z,98619.00
2022-08-08T06:30:05.311Z,98622.00
2022-08-08T06:32:52.701Z,98616.00
2022-08-08T06:36:06.635Z,98623.00
2022-08-08T06:38:27.415Z,98621.00
2022-08-08T06:41:07.369Z,98638.00
2022-08-08T06:43:56.881Z,98636.00
2022-08-08T06:46:33.045Z,98643.00
2022-08-08T06:49:05.768Z,98629.00
2022-08-08T06:51:52.298Z,98630.00
2022-08-08T06:54:32.718Z,98627.00
2022-08-08T06:57:05.584Z,98639.00
2022-08-08T07:00:01.805Z,98640.00
2022-08-08T07:02:34.819Z,98642.00
2022-08-08T07:05:20.369Z,98639.00
2022-08-08T07:08:06.235Z,98639.00
2022-08-08T07:10:47.895Z,98639.00
2022-08-08T07:13:22.906Z,98642.00
2022-08-08T07:16:10.711Z,98640.00
2022-08-08T07:19:06.602Z,98644.00
2022-08-08T07:22:00.498Z,98646.00
2022-08-08T07:24:52.929Z,98646.00
2022-08-08T07:27:35.299Z,98643.00
2022-08-08T07:30:25.974Z,98639.00
2022-08-08T07:33:01.096Z,98639.00
2022-08-08T07:35:36.594Z,98634.00
2022-08-08T07:38:20.732Z,98636.00
2022-08-08T07:41:23.765Z,98639.00
2022-08-08T07:44:00.315Z,98642.00
2022-08-08T07:46:31.590Z,98642.00
2022-08-08T07:49:17.936Z,98643.00
2022-08-08T07:51:53.448Z,98640.00
2022-08-08T07:54:49.434Z,98644.00
2022-08-08T07:57:59.646Z,98648.00
2022-08-08T08:01:06.902Z,98651.00
2022-08-08T08:03:55.443Z,98651.00
2022-08-08T08:06:38.523Z,98659.00
2022-08-08T08:09:24.525Z,98656.00
2022-08-08T08:12:00.316Z,98660.00
2022-08-08T08:15:07.544Z,98667.00
2022-08-08T08:17:55.472Z,98659.00
2022-08-08T08:20:30.895Z,98658.00
2022-08-08T08:23:05.447Z,98668.00
2022-08-08T08:25:44.286Z,98658.00
2022-08-08T08:28:23.904Z,98652.00
2022-08-08T08:31:04.822Z,98658.00
2022-08-08T08:33:39.034Z,98658.00
2022-08-08T08:36:19.269Z,98659.00
2022-08-08T08:38:53.729Z,98665.00
2022-08-08T08:41:33.768Z,98658.00
2022-08-08T08:44:14.232Z,98660.00
2022-08-08T08:46:55.673Z,98663.00
2022-08-08T08:49:34.013Z,98659.00
2022-08-08T08:52:10.011Z,98665.00
2022-08-08T08:54:42.106Z,98656.00
2022-08-08T08:57:15.679Z,98656.00
2022-08-08T08:59:59.432Z,98662.00
2022-08-08T09:02:34.783Z,98649.00
2022-08-08T09:05:08.575Z,98656.00
2022-08-08T09:08:12.847Z,98652.00
2022-08-08T09:10:51.117Z,98656.00
2022-08-08T09:13:27.950Z,98658.00
2022-08-08T09:16:03.825Z,98656.00
2022-08-08T09:18:43.786Z,98656.00
2022-08-08T09:21:58.983Z,98655.00
2022-08-08T09:24:13.444Z,98650.00
2022-08-08T09:27:09.209Z,98647.00
2022-08-08T09:30:03.824Z,98652.00
2022-08-08T09:33:12.834Z,98650.00
2022-08-08T09:35:51.822Z,98651.00
2022-08-08T09:38:54.186Z,98650.00
2022-08-08T09:42:08.012Z,98645.00
2022-08-08T09:45:08.131Z,98649.00
2022-08-08T09:48:03.874Z,98651.00
2022-08-08T09:50:43.914Z,98647.00
2022-08-08T09:53:32.890Z,98652.00
2022-08-08T09:56:21.701Z,98649.00
2022-08-08T09:59:32.135Z,98649.00
2022-08-08T10:02:04.095Z,98645.00
2022-08-08T10:04:47.707Z,98638.00
2022-08-08T10:07:19.570Z,98639.00
2022-08-08T10:09:59.930Z,98641.00
2022-08-08T10:12:52.873Z,98634.00
2022-08-08T10:15:28.610Z,98636.00
2022-08-08T10:18:06.690Z,98634.00
2022-08-08T10:20:57.958Z,98619.00
2022-08-08T10:23:42.000Z,98625.00
2022-08-08T10:26:30.781Z,98629.00
2022-08-08T10:29:12.648Z,98622.00
2022-08-08T10:32:16.560Z,98618.00
2022-08-08T10:35:01.796Z,98628.00
2022-08-08T10:37:35.215Z,98623.00
2022-08-08T10:40:15.996Z,98611.00
2022-08-08T10:42:54.518Z,98619.00
2022-08-08T10:45:27.334Z,98621.00
2022-08-08T10:48:01.009Z,98612.00
2022-08-08T10:50:38.189Z,98612.00
2022-08-08T10:53:12.859Z,98620.00
2022-08-08T10:55:46.527Z,98620.00
2022-08-08T10:58:18.836Z,98610.00
2022-08-08T11:01:01.735Z,98614.00
2022-08-08T11:04:00.668Z,98612.00
2022-08-08T11:06:35.510Z,98607.00
2022-08-08T11:09:19.346Z,98611.00
2022-08-08T11:12:05.287Z,98611.00
2022-08-08T11:15:00.571Z,98604.00
2022-08-08T11:18:00.212Z,98602.00
2022-08-08T11:20:29.095Z,98601.00
2022-08-08T11:23:05.787Z,98591.00
2022-08-08T11:25:52.260Z,98590.00
2022-08-08T11:28:29.533Z,98594.00
2022-08-08T11:31:05.051Z,98582.00
2022-08-08T11:33:52.726Z,98587.00
2022-08-08T11:36:36.537Z,98589.00
2022-08-08T11:39:11.013Z,98586.00
2022-08-08T11:41:46.206Z,98576.00
2022-08-08T11:44:29.074Z,98586.00
2022-08-08T11:47:00.768Z,98586.00
2022-08-08T11:49:32.253Z,98584.00
2022-08-08T11:52:03.704Z,98578.00
2022-08-08T11:54:44.944Z,98581.00
2022-08-08T11:57:35.081Z,98572.00
2022-08-08T12:00:09.783Z,98576.00
2022-08-08T12:02:51.923Z,98580.00
2022-08-08T12:05:36.033Z,98581.00
2022-08-08T12:08:07.390Z,98573.00
2022-08-08T12:10:48.583Z,98567.00
2022-08-08T12:13:38.368Z,98566.00
2022-08-08T12:16:19.057Z,98564.00
2022-08-08T12:18:53.366Z,98564.00
2022-08-08T12:21:59.568Z,98565.00
2022-08-08T12:24:27.958Z,98555.00
2022-08-08T12:26:59.700Z,98568.00
2022-08-08T12:29:40.489Z,98564.00
2022-08-08T12:32:20.994Z,98555.00
2022-08-08T12:35:04.947Z,98564.00
2022-08-08T12:38:01.632Z,98560.00
2022-08-08T12:40:55.934Z,98565.00
2022-08-08T12:43:32.730Z,98555.00
2022-08-08T12:46:19.377Z,98550.00
2022-08-08T12:49:25.803Z,98554.00
2022-08-08T12:51:58.569Z,98552.00
2022-08-08T12:54:36.670Z,98556.00
2022-08-08T12:57:17.711Z,98547.00
2022-08-08T13:00:05.200Z,98558.00
2022-08-08T13:02:51.682Z,98561.00
2022-08-08T13:05:26.752Z,98559.00
2022-08-08T13:08:21.939Z,98556.00
2022-08-08T13:10:58.487Z,98548.00
2022-08-08T13:13:37.162Z,98547.00
2022-08-08T13:16:25.825Z,98553.00
2022-08-08T13:19:05.474Z,98547.00
2022-08-08T13:21:53.549Z,98544.00
2022-08-08T13:24:40.536Z,98537.00
2022-08-08T13:27:35.634Z,98539.00
2022-08-08T13:30:07.937Z,98540.00
2022-08-08T13:32:39.649Z,98530.00
2022-08-08T13:35:24.777Z,98527.00
2022-08-08T13:38:08.210Z,98522.00
2022-08-08T13:40:45.103Z,98521.00
2022-08-08T13:43:17.280Z,98528.00
2022-08-08T13:45:52.803Z,98524.00
2022-08-08T13:48:26.068Z,98524.00
2022-08-08T13:51:33.369Z,98536.00
2022-08-08T13:54:00.687Z,98526.00
2022-08-08T13:56:44.530Z,98519.00
2022-08-08T13:59:49.276Z,98521.00
2022-08-08T14:02:33.212Z,98517.00
2022-08-08T14:05:21.818Z,98517.00
2022-08-08T14:07:58.204Z,98523.00
2022-08-08T14:10:33.130Z,98521.00
2022-08-08T14:13:30.797Z,98523.00
2022-08-08T14:16:07.794Z,98520.00
2022-08-08T14:19:00.630Z,98511.00
2022-08-08T14:21:48.799Z,98511.00
2022-08-08T14:24:33.990Z,98515.00
2022-08-08T14:27:20.363Z,98513.00
2022-08-08T14:30:17.764Z,98505.00
2022-08-08T14:32:52.878Z,98513.00
2022-08-08T14:35:36.210Z,98511.00
2022-08-08T14:38:34.646Z,98507.00
2022-08-08T14:41:18.622Z,98502.00
2022-08-08T14:44:19.538Z,98500.00
2022-08-08T14:47:00.361Z,98507.00
2022-08-08T14:49:51.486Z,98499.00
2022-08-08T14:52:26.990Z,98493.00
2022-08-08T14:54:58.522Z,98500.00
2022-08-08T14:58:02.541Z,98502.00
2022-08-08T15:00:21.823Z,98496.00
2022-08-08T15:03:16.129Z,98491.00
2022-08-08T15:05:53.403Z,98499.00
2022-08-08T15:08:35.055Z,98496.00
2022-08-08T15:11:11.609Z,98507.00
2022-08-08T15:14:01.465Z,98497.00
2022-08-08T15:16:35.063Z,98503.00
2022-08-08T15:19:06.956Z,98505.00
2022-08-08T15:21:43.043Z,98497.00
2022-08-08T15:24:16.075Z,98496.00
2022-08-08T15:26:52.940Z,98499.00
2022-08-08T15:29:25.484Z,98497.00
2022-08-08T15:32:19.347Z,98499.00
2022-08-08T15:34:47.904Z,98505.00
2022-08-08T15:37:19.243Z,98508.00
2022-08-08T15:39:51.665Z,98505.00
2022-08-08T15:42:31.767Z,98498.00
2022-08-08T15:45:13.187Z,98495.00
2022-08-08T15:48:04.225Z,98503.00
2022-08-08T15:50:53.963Z,98502.00
2022-08-08T15:53:27.568Z,98499.00
2022-08-08T15:56:04.785Z,98497.00
2022-08-08T15:58:37.989Z,98488.00
2022-08-08T16:01:18.053Z,98487.00
2022-08-08T16:03:51.674Z,98488.00
2022-08-08T16:06:27.358Z,98498.00
2022-08-08T16:09:02.406Z,98489.00
2022-08-08T16:13:09.240Z,98499.00
2022-08-08T16:14:52.863Z,98504.00
2022-08-08T16:17:57.494Z,98500.00
2022-08-08T16:20:16.065Z,98494.00
2022-08-08T16:22:49.269Z,98494.00
2022-08-08T16:25:21.375Z,98502.00
2022-08-08T16:27:57.816Z,98495.00
2022-08-08T16:30:36.558Z,98501.00
2022-08-08T16:33:07.955Z,98501.00
2022-08-08T16:35:40.511Z,98505.00
2022-08-08T16:38:16.199Z,98500.00
2022-08-08T16:40:57.173Z,98502.00
2022-08-08T16:43:48.756Z,98500.00
2022-08-08T16:46:37.936Z,98506.00
2022-08-08T16:49:13.601Z,98503.00
2022-08-08T16:55:00.063Z,98509.00
2022-08-08T16:55:04.836Z,98503.00
2022-08-08T16:58:14.445Z,98505.00
2022-08-08T17:00:27.033Z,98503.00
2022-08-08T17:02:58.468Z,98502.00
2022-08-08T17:05:31.215Z,98503.00
2022-08-08T17:08:13.950Z,98501.00
2022-08-08T17:10:53.655Z,98500.00
2022-08-08T17:13:50.269Z,98505.00
2022-08-08T17:16:22.113Z,98506.00
2022-08-08T17:18:55.643Z,98502.00
2022-08-08T17:21:26.670Z,98511.00
2022-08-08T17:24:00.295Z,98509.00
2022-08-08T17:26:33.255Z,98502.00
2022-08-08T17:29:06.802Z,98509.00
2022-08-08T17:31:46.082Z,98511.00
2022-08-08T17:34:52.813Z,98512.00
2022-08-08T17:37:09.236Z,98512.00
2022-08-08T17:40:02.836Z,98517.00
2022-08-08T17:42:33.219Z,98520.00
2022-08-08T17:45:06.393Z,98516.00
2022-08-08T17:47:40.916Z,98520.00
2022-08-08T17:50:12.738Z,98521.00
2022-08-08T17:52:47.758Z,98522.00
2022-08-08T17:56:04.909Z,98527.00
2022-08-08T17:58:11.787Z,98523.00
2022-08-08T18:00:47.553Z,98521.00
2022-08-08T18:03:28.109Z,98528.00
2022-08-08T18:05:59.262Z,98535.00
2022-08-08T18:08:40.894Z,98541.00
2022-08-08T18:11:16.605Z,98525.00
2022-08-08T18:13:48.142Z,98528.00
2022-08-08T18:16:23.002Z,98537.00
2022-08-08T18:18:57.795Z,98541.00
2022-08-08T18:22:00.465Z,98537.00
2022-08-08T18:24:24.702Z,98541.00
2022-08-08T18:26:59.816Z,98537.00
2022-08-08T18:29:37.418Z,98541.00
2022-08-08T18:32:13.906Z,98542.00
2022-08-08T18:34:47.487Z,98546.00
2022-08-08T18:37:34.071Z,98542.00
2022-08-08T18:40:06.929Z,98544.00
2022-08-08T18:42:45.634Z,98551.00
2022-08-08T18:46:06.198Z,98559.00
2022-08-08T18:48:15.938Z,98557.00
2022-08-08T18:50:58.212Z,98564.00
2022-08-08T18:54:00.933Z,98566.00
2022-08-08T18:56:32.112Z,98569.00
2022-08-08T18:59:03.301Z,98575.00
2022-08-08T19:02:25.311Z,98572.00
2022-08-08T19:04:27.802Z,98579.00
2022-08-08T19:07:00.726Z,98589.00
2022-08-08T19:09:49.300Z,98587.00
2022-08-08T19:12:26.714Z,98588.00
2022-08-08T19:14:58.570Z,98590.00
2022-08-08T19:17:48.014Z,98595.00
2022-08-08T19:20:25.189Z,98600.00
2022-08-08T19:22:57.170Z,98601.00
2022-08-08T19:26:02.093Z,98599.00
2022-08-08T19:28:20.503Z,98606.00
2022-08-08T19:31:03.950Z,98603.00
2022-08-08T19:33:52.281Z,98614.00
2022-08-08T19:36:29.391Z,98617.00
2022-08-08T19:39:00.364Z,98619.00
2022-08-08T19:41:33.496Z,98620.00
2022-08-08T19:44:13.175Z,98623.00
2022-08-08T19:46:55.958Z,98628.00
2022-08-08T19:49:27.661Z,98629.00
2022-08-08T19:52:07.667Z,98628.00
2022-08-08T19:54:43.235Z,98626.00
2022-08-08T19:57:15.886Z,98634.00
2022-08-08T19:59:47.065Z,98638.00
2022-08-08T20:02:20.152Z,98642.00
2022-08-08T20:04:51.569Z,98642.00
2022-08-08T20:08:28.495Z,98649.00
2022-08-08T20:10:14.337Z,98643.00
2022-08-08T20:12:59.122Z,98638.00
2022-08-08T20:15:52.475Z,98641.00
2022-08-08T20:18:29.664Z,98643.00
2022-08-08T20:21:08.452Z,98642.00
2022-08-08T20:23:42.212Z,98643.00
2022-08-08T20:26:14.281Z,98643.00
2022-08-08T20:28:46.271Z,98644.00
2022-08-08T20:31:22.388Z,98646.00
2022-08-08T20:34:27.399Z,98647.00
2022-08-08T20:36:45.470Z,98645.00
2022-08-08T20:39:16.885Z,98640.00
2022-08-08T20:41:52.484Z,98648.00
2022-08-08T20:44:25.178Z,98640.00
2022-08-08T20:46:56.263Z,98644.00
2022-08-08T20:49:32.526Z,98648.00
2022-08-08T20:52:12.103Z,98648.00
2022-08-08T20:54:44.286Z,98656.00
2022-08-08T20:57:17.480Z,98646.00
2022-08-08T20:59:50.362Z,98650.00
2022-08-08T21:02:25.697Z,98649.00
2022-08-08T21:05:00.307Z,98650.00
2022-08-08T21:08:07.868Z,98650.00
2022-08-08T21:10:28.291Z,98653.00
2022-08-08T21:13:00.803Z,98650.00
2022-08-08T21:16:04.036Z,98656.00
2022-08-08T21:18:27.825Z,98658.00
2022-08-08T21:20:59.153Z,98655.00
2022-08-08T21:23:58.990Z,98661.00
2022-08-08T21:26:27.260Z,98656.00
2022-08-08T21:29:02.334Z,98653.00
2022-08-08T21:31:58.299Z,98656.00
2022-08-08T21:34:24.586Z,98658.00
2022-08-08T21:37:11.180Z,98657.00
2022-08-08T21:39:56.608Z,98655.00
2022-08-08T21:42:28.024Z,98655.00
2022-08-08T21:45:01.251Z,98653.00
2022-08-08T21:48:06.188Z,98654.00
2022-08-08T21:50:42.697Z,98657.00
2022-08-08T21:54:32.567Z,98650.00
2022-08-08T21:56:19.953Z,98651.00
2022-08-08T21:58:58.480Z,98646.00
2022-08-08T22:01:39.150Z,98648.00
2022-08-08T22:04:12.365Z,98668.00
2022-08-08T22:06:43.416Z,98660.00
2022-08-08T22:09:14.511Z,98651.00
2022-08-08T22:11:59.291Z,98658.00
2022-08-08T22:14:38.067Z,98664.00
2022-08-08T22:17:15.112Z,98653.00
2022-08-08T22:20:10.563Z,98649.00
2022-08-08T22:22:39.033Z,98656.00
2022-08-08T22:25:12.144Z,98656.00
2022-08-08T22:28:02.538Z,98650.00
2022-08-08T22:30:36.121Z,98645.00
2022-08-08T22:34:10.990Z,98649.00
2022-08-08T22:36:04.327Z,98649.00
2022-08-08T22:38:48.204Z,98654.00
2022-08-08T22:41:21.496Z,98652.00
2022-08-08T22:44:02.137Z,98652.00
2022-08-08T22:46:39.538Z,98655.00
2022-08-08T22:49:10.858Z,98652.00
2022-08-08T22:51:42.401Z,98655.00
2022-08-08T22:54:33.194Z,98658.00
2022-08-08T22:57:11.394Z,98663.00
2022-08-08T22:59:59.403Z,98658.00
2022-08-08T23:02:31.672Z,98657.00
2022-08-08T23:05:05.460Z,98655.00
2022-08-08T23:07:51.495Z,98654.00
2022-08-08T23:10:28.317Z,98645.00
2022-08-08T23:12:59.306Z,98641.00
2022-08-08T23:16:40.449Z,98643.00
2022-08-08T23:18:22.331Z,98649.00
2022-08-08T23:20:55.013Z,98647.00
2022-08-08T23:23:26.117Z,98655.00
2022-08-08T23:25:57.253Z,98654.00
2022-08-08T23:28:28.800Z,98663.00
2022-08-08T23:30:59.782Z,98654.00
2022-08-08T23:34:18.462Z,98646.00
2022-08-08T23:36:26.042Z,98651.00
2022-08-08T23:38:57.859Z,98656.00
2022-08-08T23:41:29.168Z,98649.00
2022-08-08T23:44:03.079Z,98650.00
2022-08-08T23:49:05.324Z,98645.00
2022-08-08T23:49:26.760Z,98642.00
2022-08-08T23:52:06.350Z,98642.00
2022-08-08T23:54:53.293Z,98647.00
2022-08-08T23:57:39.228Z,98648.00
